Time;durP1;ratioP1;P1;durP2;ratioP2;P2;SDS_P1;SDS_P2;PMS_P1;PMS_P2;Temp;Humidity;BMP_temperature;BMP_pressure;BME280_temperature;BME280_humidity;BME280_pressure;Samples;Min_cycle;Max_cycle;Signal;HPM_P1;HPM_P2
2021/11/21 00:00:45;;;;;;;24.55;10.70;;;;;;;8.27;100.00;101533.53;5027854;28;20116;-68
2021/11/21 00:03:14;;;;;;;23.77;11.30;;;;;;;8.28;100.00;101526.44;5024811;28;20132;-68
2021/11/21 00:05:43;;;;;;;24.67;10.80;;;;;;;8.27;100.00;101528.19;5029976;28;20085;-68
2021/11/21 00:08:14;;;;;;;25.02;12.05;;;;;;;8.27;100.00;101522.00;5030947;28;20128;-68
2021/11/21 00:10:42;;;;;;;22.00;10.52;;;;;;;8.26;100.00;101523.81;5024052;28;20135;-67
2021/11/21 00:13:11;;;;;;;22.15;11.27;;;;;;;8.27;100.00;101514.03;5026861;28;20092;-67
2021/11/21 00:15:41;;;;;;;22.60;10.90;;;;;;;8.25;100.00;101513.19;5022613;28;20048;-67
2021/11/21 00:18:11;;;;;;;21.00;10.18;;;;;;;8.27;100.00;101501.63;5029510;28;20052;-68
2021/11/21 00:20:42;;;;;;;19.00;10.05;;;;;;;8.28;100.00;101503.38;5028640;28;20092;-69
2021/11/21 00:23:11;;;;;;;22.80;10.77;;;;;;;8.27;100.00;101498.09;5027653;28;20054;-67
2021/11/21 00:25:39;;;;;;;19.42;10.00;;;;;;;8.26;100.00;101497.22;5028536;28;20065;-67
2021/11/21 00:28:07;;;;;;;20.17;11.23;;;;;;;8.27;100.00;101490.97;5024438;28;20567;-67
2021/11/21 00:30:35;;;;;;;20.10;9.57;;;;;;;8.27;100.00;101492.75;5029201;28;20458;-68
2021/11/21 00:33:03;;;;;;;17.50;9.52;;;;;;;8.28;100.00;101489.22;5020307;28;20568;-67
2021/11/21 00:35:33;;;;;;;20.00;9.75;;;;;;;8.29;100.00;101490.97;5029323;28;20594;-68
2021/11/21 00:38:01;;;;;;;19.80;9.48;;;;;;;8.31;100.00;101483.84;5024783;28;20092;-69
2021/11/21 00:40:29;;;;;;;18.15;9.27;;;;;;;8.31;100.00;101483.84;5026565;28;20156;-69
2021/11/21 00:42:58;;;;;;;18.85;9.18;;;;;;;8.28;100.00;101484.78;5026634;28;20058;-69
2021/11/21 00:45:27;;;;;;;22.40;10.18;;;;;;;8.29;100.00;101482.97;5023834;28;20108;-69
2021/11/21 00:47:55;;;;;;;21.02;10.38;;;;;;;8.30;100.00;101485.63;5027568;28;20176;-69
2021/11/21 00:50:26;;;;;;;19.02;9.82;;;;;;;8.29;100.00;101486.56;5023797;28;20498;-67
2021/11/21 00:53:01;;;;;;;19.55;10.32;;;;;;;8.31;100.00;101481.19;5025366;28;20428;-68
2021/11/21 00:55:36;;;;;;;23.02;10.55;;;;;;;8.31;100.00;101483.84;5016986;28;20068;-69
2021/11/21 00:58:05;;;;;;;17.13;8.70;;;;;;;8.28;100.00;101474.13;5026007;28;20045;-67
2021/11/21 01:00:34;;;;;;;21.10;9.25;;;;;;;8.28;100.00;101479.47;5026671;28;20063;-73
2021/11/21 01:03:03;;;;;;;20.35;8.80;;;;;;;8.30;100.00;101474.13;5022035;28;20103;-74
2021/11/21 01:05:31;;;;;;;17.88;10.02;;;;;;;8.31;100.00;101465.22;5025304;28;20144;-73
2021/11/21 01:08:00;;;;;;;18.45;9.65;;;;;;;8.30;100.00;101453.72;5020651;28;20077;-73
2021/11/21 01:10:28;;;;;;;19.30;9.85;;;;;;;8.30;100.00;101460.81;5027201;28;20049;-75
2021/11/21 01:12:56;;;;;;;17.50;8.48;;;;;;;8.32;100.00;101467.00;5021106;28;20509;-74
2021/11/21 01:15:25;;;;;;;18.00;8.70;;;;;;;8.33;100.00;101450.16;5029650;28;20564;-74
2021/11/21 01:17:56;;;;;;;17.95;8.77;;;;;;;8.33;100.00;101458.13;5023102;28;20387;-68
2021/11/21 01:20:26;;;;;;;16.00;7.85;;;;;;;8.37;100.00;101451.88;5026328;28;20061;-67
2021/11/21 01:22:54;;;;;;;16.25;7.63;;;;;;;8.39;100.00;101458.94;5022553;28;20095;-68
2021/11/21 01:25:25;;;;;;;21.13;7.07;;;;;;;8.41;100.00;101453.56;5024528;28;20825;-67
2021/11/21 01:27:53;;;;;;;13.77;7.35;;;;;;;8.44;100.00;101453.56;5020233;28;20536;-68
2021/11/21 01:30:26;;;;;;;13.10;6.93;;;;;;;8.46;100.00;101450.88;5019982;28;20765;-67
2021/11/21 01:32:54;;;;;;;16.08;7.07;;;;;;;8.53;100.00;101447.25;5024387;28;20079;-67
2021/11/21 01:35:23;;;;;;;14.52;6.80;;;;;;;8.51;100.00;101447.28;5021920;28;20504;-68
2021/11/21 01:37:51;;;;;;;15.25;6.65;;;;;;;8.58;100.00;101440.97;5017271;28;20308;-67
2021/11/21 01:40:21;;;;;;;13.77;7.05;;;;;;;8.60;100.00;101441.81;5026131;28;20052;-67
2021/11/21 01:42:51;;;;;;;12.68;7.03;;;;;;;8.60;100.00;101440.97;5022345;28;20060;-69
2021/11/21 01:45:20;;;;;;;17.50;7.82;;;;;;;8.61;100.00;101434.72;5021369;28;20045;-74
2021/11/21 01:47:49;;;;;;;12.25;5.95;;;;;;;8.64;100.00;101437.34;5026236;28;20192;-74
2021/11/21 01:50:20;;;;;;;15.27;6.80;;;;;;;8.67;100.00;101434.63;5024183;28;20045;-73
2021/11/21 01:52:48;;;;;;;11.77;6.20;;;;;;;8.71;100.00;101433.69;5022405;28;20577;-72
2021/11/21 01:55:16;;;;;;;14.10;6.63;;;;;;;8.70;100.00;101431.03;5021529;28;21339;-69
2021/11/21 01:57:44;;;;;;;15.27;5.85;;;;;;;8.71;100.00;101427.50;5026371;28;20060;-69
2021/11/21 02:00:15;;;;;;;12.90;6.07;;;;;;;8.74;100.00;101424.78;5022906;28;20087;-68
2021/11/21 02:02:44;;;;;;;14.98;7.05;;;;;;;8.73;100.00;101429.22;5029455;28;20412;-67
2021/11/21 02:05:12;;;;;;;12.38;6.35;;;;;;;8.71;100.00;101415.06;5025502;28;20057;-68
2021/11/21 02:07:46;;;;;;;12.60;6.15;;;;;;;8.68;100.00;101411.56;5030881;28;20124;-68
2021/11/21 02:10:19;;;;;;;14.55;6.82;;;;;;;8.66;100.00;101413.38;5027376;28;20049;-68
2021/11/21 02:12:47;;;;;;;;;;;;;;;8.65;100.00;101407.19;5026625;28;20081;-68
2021/11/21 02:15:20;;;;;;;13.52;7.03;;;;;;;8.65;100.00;101406.28;5028563;28;19929;-68
2021/11/21 02:17:48;;;;;;;13.35;7.13;;;;;;;8.64;100.00;101402.75;5025777;28;20469;-68
2021/11/21 02:20:18;;;;;;;15.77;6.93;;;;;;;8.65;100.00;101406.28;5025481;28;20210;-68
2021/11/21 02:22:48;;;;;;;14.95;7.78;;;;;;;8.65;100.00;101400.97;5024401;28;20111;-68
2021/11/21 02:25:16;;;;;;;12.85;6.70;;;;;;;8.66;100.00;101397.41;5030391;28;20136;-68
2021/11/21 02:27:45;;;;;;;19.08;7.68;;;;;;;8.69;100.00;101392.91;5026199;28;20084;-67
2021/11/21 02:30:13;;;;;;;15.35;7.45;;;;;;;8.70;100.00;101385.81;5027895;28;20814;-67
2021/11/21 02:32:47;;;;;;;15.05;7.53;;;;;;;8.69;100.00;101384.94;5026537;28;20049;-67
2021/11/21 02:35:17;;;;;;;13.93;7.43;;;;;;;8.71;100.00;101383.13;5029792;28;20073;-68
2021/11/21 02:37:47;;;;;;;16.73;7.28;;;;;;;8.70;100.00;101376.06;5027311;28;20393;-68
2021/11/21 02:40:18;;;;;;;14.55;7.55;;;;;;;8.71;100.00;101371.63;5021731;28;20039;-68
2021/11/21 02:42:46;;;;;;;15.85;8.25;;;;;;;8.72;100.00;101368.94;5025800;28;20053;-69
2021/11/21 02:45:17;;;;;;;14.52;7.95;;;;;;;8.71;100.00;101363.63;5019793;28;20560;-68
2021/11/21 02:47:47;;;;;;;18.50;8.95;;;;;;;8.75;100.00;101357.34;5026794;28;20061;-68
2021/11/21 02:50:19;;;;;;;15.25;8.63;;;;;;;8.73;100.00;101345.84;5029798;28;20561;-68
2021/11/21 02:52:49;;;;;;;13.68;8.57;;;;;;;8.73;100.00;101345.84;5017540;28;20144;-68
2021/11/21 02:55:18;;;;;;;15.10;8.88;;;;;;;8.71;100.00;101332.56;5024926;28;20056;-74
2021/11/21 02:57:47;;;;;;;16.45;8.60;;;;;;;8.72;100.00;101342.31;5024636;28;20091;-74
2021/11/21 03:00:16;;;;;;;14.30;8.15;;;;;;;8.75;100.00;101336.06;5026475;28;20616;-74
2021/11/21 03:02:47;;;;;;;13.93;8.15;;;;;;;8.72;100.00;101326.38;5023555;28;20057;-74
2021/11/21 03:05:18;;;;;;;13.38;7.60;;;;;;;8.75;100.00;101326.31;5025530;28;20063;-74
2021/11/21 03:07:48;;;;;;;15.48;7.65;;;;;;;8.76;100.00;101327.19;5023661;28;20171;-74
2021/11/21 03:10:19;;;;;;;16.25;8.73;;;;;;;8.79;100.00;101329.81;5028379;28;20064;-74
2021/11/21 03:12:50;;;;;;;12.55;7.47;;;;;;;8.79;100.00;101328.00;5026125;28;20168;-68
2021/11/21 03:15:18;;;;;;;15.65;7.57;;;;;;;8.81;100.00;101327.13;5024932;28;20120;-68
2021/11/21 03:17:46;;;;;;;15.05;8.32;;;;;;;8.84;100.00;101319.09;5028640;28;20084;-68
2021/11/21 03:20:17;;;;;;;13.90;7.47;;;;;;;8.87;100.00;101321.66;5026660;28;20172;-68
2021/11/21 03:22:47;;;;;;;14.25;6.22;;;;;;;8.88;100.00;101311.00;5025558;28;20092;-67
2021/11/21 03:25:16;;;;;;;14.93;5.60;;;;;;;8.93;100.00;101314.47;5023110;28;20052;-67
2021/11/21 03:27:44;;;;;;;11.27;5.03;;;;;;;8.92;100.00;101319.81;5029788;28;20053;-67
2021/11/21 03:30:16;;;;;;;9.13;4.13;;;;;;;8.92;100.00;101327.78;5025468;28;20289;-67
2021/11/21 03:32:47;;;;;;;10.77;4.13;;;;;;;8.92;100.00;101333.09;5030608;28;20049;-68
2021/11/21 03:35:16;;;;;;;6.85;2.60;;;;;;;8.81;100.00;101327.13;5026575;28;20095;-67
2021/11/21 03:37:44;;;;;;;7.00;2.40;;;;;;;8.77;100.00;101334.28;5025386;28;20644;-68
2021/11/21 03:40:17;;;;;;;4.10;2.00;;;;;;;8.73;100.00;101329.88;5028828;28;20047;-67
2021/11/21 03:42:46;;;;;;;6.60;2.15;;;;;;;8.72;100.00;101333.47;5024691;28;20417;-68
2021/11/21 03:45:16;;;;;;;3.78;1.55;;;;;;;8.68;100.00;101329.97;5029740;28;20185;-67
2021/11/21 03:47:45;;;;;;;4.10;1.45;;;;;;;8.67;100.00;101332.66;5021863;28;20352;-67
2021/11/21 03:50:14;;;;;;;6.63;1.95;;;;;;;8.67;100.00;101327.34;5028119;28;20081;-68
2021/11/21 03:52:42;;;;;;;7.40;1.90;;;;;;;8.65;100.00;101327.38;5018598;28;20417;-67
2021/11/21 03:55:13;;;;;;;5.47;1.73;;;;;;;8.61;100.00;101333.63;5027633;28;20057;-67
2021/11/21 03:57:42;;;;;;;5.72;2.22;;;;;;;8.57;100.00;101343.44;5021591;28;20397;-67
2021/11/21 04:00:14;;;;;;;5.50;1.30;;;;;;;8.56;100.00;101336.38;5029109;28;20479;-68
2021/11/21 04:02:42;;;;;;;3.78;1.38;;;;;;;8.54;100.00;101330.19;5020947;28;20045;-67
2021/11/21 04:05:11;;;;;;;8.95;1.80;;;;;;;8.53;100.00;101330.19;5026964;28;20053;-68
2021/11/21 04:07:40;;;;;;;4.97;1.77;;;;;;;8.52;100.00;101337.31;5025168;28;20382;-68
2021/11/21 04:10:09;;;;;;;6.40;1.77;;;;;;;8.53;100.00;101333.75;5029735;28;20130;-68
2021/11/21 04:12:39;;;;;;;6.00;1.80;;;;;;;8.54;100.00;101331.97;5018250;28;20053;-67
2021/11/21 04:15:09;;;;;;;5.63;1.80;;;;;;;8.52;100.00;101332.00;5026913;28;20511;-68
2021/11/21 04:17:37;;;;;;;5.40;1.40;;;;;;;8.51;100.00;101340.00;5023864;28;20052;-69
2021/11/21 04:20:08;;;;;;;4.00;1.50;;;;;;;8.49;100.00;101332.03;5028422;28;20049;-69
2021/11/21 04:22:36;;;;;;;5.88;1.65;;;;;;;8.49;100.00;101329.38;5025919;28;20077;-67
2021/11/21 04:25:05;;;;;;;5.45;1.65;;;;;;;8.49;100.00;101320.53;5026012;28;20099;-68
2021/11/21 04:27:33;;;;;;;4.38;1.63;;;;;;;8.47;100.00;101328.53;5026549;28;20068;-68
2021/11/21 04:30:04;;;;;;;6.35;1.60;;;;;;;8.47;100.00;101335.63;5025405;28;21266;-68
2021/11/21 04:32:32;;;;;;;7.43;2.33;;;;;;;8.46;100.00;101340.06;5022629;28;20046;-68
2021/11/21 04:35:00;;;;;;;7.82;1.50;;;;;;;8.44;100.00;101341.88;5029554;28;20135;-68
2021/11/21 04:37:28;;;;;;;10.70;2.28;;;;;;;8.45;100.00;101337.44;5026410;28;20106;-73
2021/11/21 04:40:06;;;;;;;10.40;1.70;;;;;;;8.42;100.00;101330.34;5027538;28;20583;-74
2021/11/21 04:42:36;;;;;;;11.45;1.90;;;;;;;8.43;100.00;101333.91;5026844;28;20548;-73
2021/11/21 04:45:07;;;;;;;5.72;1.55;;;;;;;8.41;100.00;101334.81;5023707;28;20222;-75
2021/11/21 04:47:35;;;;;;;6.47;1.80;;;;;;;8.41;100.00;101334.81;5026977;28;20050;-73
2021/11/21 04:50:04;;;;;;;8.07;1.60;;;;;;;8.40;100.00;101341.00;5024574;28;20049;-74
2021/11/21 04:52:33;;;;;;;7.65;1.70;;;;;;;8.39;100.00;101336.59;5022246;28;20449;-73
2021/11/21 04:55:00;;;;;;;8.27;2.00;;;;;;;8.34;100.00;101333.13;5025753;28;20140;-75
2021/11/21 04:57:31;;;;;;;7.65;1.70;;;;;;;8.37;100.00;101332.19;5021219;28;20049;-73
2021/11/21 04:59:59;;;;;;;7.32;1.65;;;;;;;8.33;100.00;101335.81;5024697;28;20126;-73
2021/11/21 05:02:28;;;;;;;8.32;1.48;;;;;;;8.30;100.00;101327.88;5025412;28;20057;-73
2021/11/21 05:04:56;;;;;;;9.15;1.60;;;;;;;8.27;100.00;101326.13;5026451;28;20463;-73
2021/11/21 05:07:24;;;;;;;6.20;1.80;;;;;;;8.27;100.00;101325.25;5023980;28;20099;-73
2021/11/21 05:09:52;;;;;;;11.18;3.25;;;;;;;8.23;100.00;101329.75;5028252;28;21112;-73
2021/11/21 05:12:22;;;;;;;5.15;1.85;;;;;;;8.22;100.00;101327.97;5019594;28;20049;-74
2021/11/21 05:14:53;;;;;;;7.75;1.75;;;;;;;8.22;100.00;101327.97;5028132;28;20044;-74
2021/11/21 05:17:21;;;;;;;4.03;1.27;;;;;;;8.20;100.00;101322.69;5025961;28;20053;-74
2021/11/21 05:19:51;;;;;;;8.82;1.90;;;;;;;8.20;100.00;101325.34;5024267;28;20143;-74
2021/11/21 05:22:20;;;;;;;7.60;2.00;;;;;;;8.13;100.00;101312.19;5025736;28;20158;-74
2021/11/21 05:24:48;;;;;;;6.72;2.50;;;;;;;8.18;100.00;101329.81;5020298;28;20061;-74
2021/11/21 05:27:16;;;;;;;6.03;1.70;;;;;;;8.14;100.00;101328.09;5027603;28;20140;-74
2021/11/21 05:29:44;;;;;;;7.38;1.92;;;;;;;8.13;100.00;101331.66;5024838;28;20092;-74
2021/11/21 05:32:13;;;;;;;3.25;1.05;;;;;;;8.11;100.00;101332.59;5025943;28;20049;-74
2021/11/21 05:34:42;;;;;;;5.80;1.35;;;;;;;8.07;100.00;101333.50;5023580;28;20056;-74
2021/11/21 05:37:13;;;;;;;5.55;1.73;;;;;;;8.07;100.00;101336.16;5025929;28;20063;-75
2021/11/21 05:39:44;;;;;;;5.32;1.50;;;;;;;7.98;100.00;101311.47;5021546;28;20053;-76
2021/11/21 05:42:14;;;;;;;4.95;1.40;;;;;;;7.98;100.00;101322.09;5026260;28;20110;-75
2021/11/21 05:44:43;;;;;;;6.60;2.33;;;;;;;7.97;100.00;101319.50;5021692;28;20046;-73
2021/11/21 05:47:10;;;;;;;4.07;1.42;;;;;;;7.96;100.00;101318.59;5026756;28;20111;-73
2021/11/21 05:49:38;;;;;;;6.57;1.75;;;;;;;7.96;100.00;101317.72;5019180;28;20153;-75
2021/11/21 05:52:07;;;;;;;4.72;1.77;;;;;;;7.89;100.00;101316.06;5024022;28;20257;-75
2021/11/21 05:54:36;;;;;;;6.88;1.52;;;;;;;7.86;100.00;101320.50;5018181;28;20111;-73
2021/11/21 05:57:05;;;;;;;7.85;1.90;;;;;;;7.84;100.00;101314.31;5025539;28;20064;-74
2021/11/21 05:59:35;;;;;;;5.70;1.70;;;;;;;7.81;100.00;101313.47;5021871;28;20068;-73
2021/11/21 06:02:03;;;;;;;6.55;1.60;;;;;;;7.81;100.00;101313.47;5027874;28;20046;-73
2021/11/21 06:04:33;;;;;;;7.30;2.45;;;;;;;7.77;100.00;101307.34;5026278;28;20119;-74
2021/11/21 06:07:01;;;;;;;6.60;1.55;;;;;;;7.77;100.00;101311.78;5024072;28;20091;-74
2021/11/21 06:09:29;;;;;;;7.07;1.83;;;;;;;7.75;100.00;101317.13;5023907;28;20134;-67
2021/11/21 06:11:59;;;;;;;7.35;1.75;;;;;;;7.73;100.00;101310.94;5019714;28;20045;-69
2021/11/21 06:14:29;;;;;;;9.88;2.17;;;;;;;7.79;100.00;101315.28;5024155;28;20045;-68
2021/11/21 06:16:58;;;;;;;12.48;2.35;;;;;;;7.74;100.00;101312.69;5018898;28;20045;-69
2021/11/21 06:19:26;;;;;;;13.57;2.53;;;;;;;7.73;100.00;101315.34;5027650;28;20045;-68
2021/11/21 06:21:54;;;;;;;10.02;2.33;;;;;;;7.66;100.00;101312.81;5019074;28;20485;-69
2021/11/21 06:24:22;;;;;;;13.60;2.33;;;;;;;7.76;100.00;101325.94;5027900;28;20148;-68
2021/11/21 06:26:50;;;;;;;8.63;2.20;;;;;;;7.83;100.00;101322.31;5023701;28;20088;-68
2021/11/21 06:29:20;;;;;;;7.38;2.35;;;;;;;7.79;100.00;101323.25;5030052;28;20123;-68
2021/11/21 06:31:48;;;;;;;7.05;1.65;;;;;;;7.77;100.00;101327.72;5026050;28;20144;-66
2021/11/21 06:34:17;;;;;;;10.27;1.63;;;;;;;7.71;100.00;101333.97;5021570;28;20053;-67
2021/11/21 06:36:48;;;;;;;8.07;1.75;;;;;;;7.66;100.00;101333.16;5021700;28;20060;-68
2021/11/21 06:39:16;;;;;;;9.55;2.15;;;;;;;7.56;100.00;101327.09;5028396;28;20053;-68
2021/11/21 06:41:45;;;;;;;3.92;1.45;;;;;;;7.50;100.00;101327.16;5028077;28;20461;-69
2021/11/21 06:44:13;;;;;;;9.82;1.50;;;;;;;7.48;100.00;101324.50;5021460;28;20110;-69
2021/11/21 06:46:43;;;;;;;9.40;1.85;;;;;;;7.43;100.00;101326.34;5026276;28;20168;-69
2021/11/21 06:49:11;;;;;;;6.28;1.70;;;;;;;7.43;100.00;101328.13;5026635;28;20049;-69
2021/11/21 06:51:42;;;;;;;11.27;1.75;;;;;;;7.43;100.00;101322.81;5031569;28;20047;-67
2021/11/21 06:54:11;;;;;;;12.00;2.20;;;;;;;7.37;100.00;101318.47;5022481;28;20057;-67
2021/11/21 06:56:42;;;;;;;8.15;1.90;;;;;;;7.37;100.00;101320.22;5030773;28;20045;-67
2021/11/21 06:59:10;;;;;;;12.48;1.98;;;;;;;7.40;100.00;101322.84;5028297;28;20389;-68
2021/11/21 07:01:41;;;;;;;5.03;1.20;;;;;;;7.35;100.00;101327.31;5024824;28;20147;-67
2021/11/21 07:04:11;;;;;;;9.93;1.73;;;;;;;7.35;100.00;101330.84;5021677;28;20084;-67
2021/11/21 07:06:41;;;;;;;7.22;1.75;;;;;;;7.36;100.00;101335.28;5030042;28;20131;-73
2021/11/21 07:09:11;;;;;;;13.30;1.90;;;;;;;7.36;100.00;101340.59;5029566;28;20125;-75
2021/11/21 07:11:41;;;;;;;7.80;2.08;;;;;;;7.36;100.00;101339.72;5022980;28;20105;-73
2021/11/21 07:14:11;;;;;;;8.63;2.00;;;;;;;7.34;100.00;101346.78;5026673;28;20091;-73
2021/11/21 07:16:39;;;;;;;12.95;4.50;;;;;;;7.34;100.00;101350.34;5027381;28;20057;-73
2021/11/21 07:19:07;;;;;;;5.45;1.60;;;;;;;7.37;100.00;101357.38;5028542;28;20085;-73
2021/11/21 07:21:37;;;;;;;7.43;1.90;;;;;;;7.34;100.00;101360.97;5024416;28;20549;-73
2021/11/21 07:24:07;;;;;;;7.85;2.00;;;;;;;7.36;100.00;101374.22;5028580;28;20168;-73
2021/11/21 07:26:35;;;;;;;4.85;1.65;;;;;;;7.30;100.00;101359.22;5024336;28;20353;-76
2021/11/21 07:29:04;;;;;;;9.43;1.60;;;;;;;7.26;100.00;101365.47;5028581;28;20168;-69
2021/11/21 07:31:33;;;;;;;11.70;2.47;;;;;;;7.28;100.00;101369.84;5027140;28;20049;-75
2021/11/21 07:34:01;;;;;;;5.43;1.27;;;;;;;7.29;100.00;101363.66;5026910;28;20405;-69
2021/11/21 07:36:30;;;;;;;10.07;2.75;;;;;;;7.33;100.00;101374.25;5029995;28;20349;-69
2021/11/21 07:38:59;;;;;;;10.35;2.05;;;;;;;7.29;100.00;101362.78;5026281;28;20060;-68
2021/11/21 07:41:28;;;;;;;10.15;1.92;;;;;;;7.28;100.00;101371.63;5027927;28;20049;-74
2021/11/21 07:43:56;;;;;;;12.07;1.70;;;;;;;7.25;100.00;101376.97;5030231;28;20072;-67
2021/11/21 07:46:25;;;;;;;5.68;1.45;;;;;;;7.20;100.00;101371.72;5028250;28;20154;-70
2021/11/21 07:48:53;;;;;;;6.85;1.75;;;;;;;7.26;100.00;101384.03;5027337;28;20048;-70
2021/11/21 07:51:22;;;;;;;10.88;2.78;;;;;;;7.29;100.00;101392.84;5028038;28;20064;-68
2021/11/21 07:53:50;;;;;;;21.15;2.80;;;;;;;7.26;100.00;101390.22;5026386;28;20168;-68
2021/11/21 07:56:19;;;;;;;5.82;1.70;;;;;;;7.19;100.00;101395.63;5024562;28;20056;-68
2021/11/21 07:58:50;;;;;;;7.75;1.58;;;;;;;7.19;100.00;101411.56;5027313;28;20076;-68
2021/11/21 08:01:18;;;;;;;10.15;2.10;;;;;;;7.22;100.00;101400.88;5023741;28;20135;-68
2021/11/21 08:03:46;;;;;;;9.35;1.80;;;;;;;7.20;100.00;101402.69;5031990;28;20167;-73
2021/11/21 08:06:15;;;;;;;7.13;1.80;;;;;;;7.14;100.00;101398.31;5025224;28;20481;-69
2021/11/21 08:08:43;;;;;;;7.05;2.15;;;;;;;7.06;100.00;101390.41;5030018;28;20825;-69
2021/11/21 08:11:11;;;;;;;6.90;1.95;;;;;;;7.01;100.00;101391.34;5029743;28;20068;-69
2021/11/21 08:13:40;;;;;;;6.53;1.77;;;;;;;6.97;100.00;101398.47;5023314;28;20048;-70
2021/11/21 08:16:08;;;;;;;8.50;1.55;;;;;;;6.97;100.00;101398.47;5027925;28;20088;-68
2021/11/21 08:18:36;;;;;;;5.75;1.55;;;;;;;6.96;100.00;101402.00;5025336;28;20080;-68
2021/11/21 08:21:04;;;;;;;6.07;1.70;;;;;;;6.98;100.00;101409.94;5030458;28;20057;-68
2021/11/21 08:23:32;;;;;;;5.28;1.92;;;;;;;6.99;100.00;101407.28;5023642;28;20091;-68
2021/11/21 08:26:00;;;;;;;13.40;2.33;;;;;;;7.00;100.00;101408.16;5030059;28;20049;-75
2021/11/21 08:28:31;;;;;;;12.68;2.30;;;;;;;6.96;100.00;101407.28;5027907;28;20053;-73
2021/11/21 08:31:00;;;;;;;9.32;2.58;;;;;;;6.92;100.00;101406.44;5022420;28;20053;-75
2021/11/21 08:33:28;;;;;;;19.75;3.80;;;;;;;6.89;100.00;101414.41;5024025;28;20088;-73
2021/11/21 08:35:56;;;;;;;8.45;2.83;;;;;;;6.87;100.00;101408.25;5025475;28;20179;-74
2021/11/21 08:38:48;;;;;;;12.27;4.07;;;;;;;6.82;100.00;101402.09;5023431;28;20063;-73
2021/11/21 08:41:17;;;;;;;10.70;3.33;;;;;;;6.83;100.00;101403.00;5028878;28;20736;-74
2021/11/21 08:43:45;;;;;;;8.38;2.33;;;;;;;6.81;100.00;101399.47;5028241;28;20061;-74
2021/11/21 08:46:14;;;;;;;11.00;3.10;;;;;;;6.79;100.00;101403.91;5026298;28;20041;-75
2021/11/21 08:48:42;;;;;;;6.70;2.40;;;;;;;6.76;100.00;101398.63;5030377;28;20060;-74
2021/11/21 08:51:10;;;;;;;7.72;2.17;;;;;;;6.70;100.00;101402.19;5024060;28;20133;-74
2021/11/21 08:53:38;;;;;;;5.32;2.20;;;;;;;6.67;100.00;101403.09;5023907;28;20115;-74
2021/11/21 08:56:06;;;;;;;8.50;2.72;;;;;;;6.63;100.00;101403.13;5024891;28;20049;-69
2021/11/21 08:58:36;;;;;;;7.38;2.58;;;;;;;6.58;100.00;101392.56;5029047;28;20107;-68
2021/11/21 09:01:04;;;;;;;8.80;2.47;;;;;;;6.54;100.00;101404.09;5024132;28;20145;-69
2021/11/21 09:03:35;;;;;;;6.85;2.33;;;;;;;6.55;100.00;101403.16;5024955;28;20056;-68
2021/11/21 09:06:04;;;;;;;9.52;3.22;;;;;;;6.51;100.00;101404.09;5020611;28;20444;-68
2021/11/21 09:08:32;;;;;;;11.63;3.33;;;;;;;6.47;100.00;101413.84;5026318;28;20298;-68
2021/11/21 09:11:00;;;;;;;11.10;2.75;;;;;;;6.42;100.00;101406.78;5022123;28;20045;-68
2021/11/21 09:13:28;;;;;;;12.02;2.65;;;;;;;6.42;100.00;101414.75;5027751;28;20049;-67
2021/11/21 09:15:57;;;;;;;8.15;2.05;;;;;;;6.42;100.00;101409.44;5006683;28;20133;-68
2021/11/21 09:18:25;;;;;;;6.43;2.28;;;;;;;6.46;100.00;101405.91;5027974;28;20072;-67
2021/11/21 09:20:56;;;;;;;10.50;2.47;;;;;;;6.57;100.00;101404.03;5026124;28;20888;-67
2021/11/21 09:23:26;;;;;;;8.88;2.28;;;;;;;6.61;100.00;101410.22;5025726;28;20099;-68
2021/11/21 09:25:54;;;;;;;12.82;2.28;;;;;;;6.69;100.00;101417.25;5026061;28;20045;-68
2021/11/21 09:28:24;;;;;;;11.05;2.00;;;;;;;6.82;100.00;101415.38;5023661;28;20128;-68
2021/11/21 09:30:54;;;;;;;10.02;2.72;;;;;;;6.83;100.00;101426.88;5028731;28;20053;-68
2021/11/21 09:33:22;;;;;;;6.95;1.98;;;;;;;6.85;100.00;101425.09;5021876;28;20098;-68
2021/11/21 09:35:51;;;;;;;5.45;1.85;;;;;;;6.94;100.00;101418.81;5026795;28;20099;-68
2021/11/21 09:38:21;;;;;;;8.55;2.10;;;;;;;6.91;100.00;101425.94;5025129;28;20401;-68
2021/11/21 09:40:49;;;;;;;10.18;2.33;;;;;;;6.89;100.00;101430.34;5029181;28;20503;-68
2021/11/21 09:43:18;;;;;;;8.70;1.98;;;;;;;6.96;100.00;101430.31;5023108;28;20049;-68
2021/11/21 09:45:47;;;;;;;9.15;2.42;;;;;;;6.99;100.00;101422.31;5029428;28;20134;-70
2021/11/21 09:48:16;;;;;;;8.05;1.92;;;;;;;7.22;100.00;101427.41;5030320;28;20049;-67
2021/11/21 09:50:45;;;;;;;11.77;2.45;;;;;;;7.43;100.00;101426.38;5025511;28;20057;-68
2021/11/21 09:53:15;;;;;;;6.22;1.83;;;;;;;7.64;100.00;101418.19;5019598;28;20126;-70
2021/11/21 09:55:46;;;;;;;5.40;1.55;;;;;;;7.84;100.00;101415.28;5026863;28;20057;-74
2021/11/21 09:58:15;;;;;;;10.93;2.55;;;;;;;8.01;100.00;101420.41;5023972;28;20198;-75
2021/11/21 10:00:43;;;;;;;12.45;2.63;;;;;;;8.20;100.00;101418.38;5023292;28;20064;-75
2021/11/21 10:03:13;;;;;;;12.20;1.83;;;;;;;8.37;98.86;101417.28;5022675;28;20157;-74
2021/11/21 10:05:46;;;;;;;9.38;2.00;;;;;;;8.56;97.34;101425.91;5024532;28;20049;-68
2021/11/21 10:08:15;;;;;;;;;;;;;;;8.71;97.26;101419.50;5020473;28;20062;-68
2021/11/21 10:10:48;;;;;;;6.43;1.33;;;;;;;8.81;94.48;101426.44;5023983;28;20031;-68
2021/11/21 10:13:25;;;;;;;9.67;1.67;;;;;;;8.87;90.88;101423.69;5017117;28;20048;-67
2021/11/21 10:15:54;;;;;;;5.55;2.72;;;;;;;8.93;89.92;101423.59;5022895;28;20045;-67
2021/11/21 10:18:22;;;;;;;5.13;1.30;;;;;;;9.03;89.90;101428.78;5022114;28;20103;-67
2021/11/21 10:20:50;;;;;;;4.93;1.50;;;;;;;9.11;90.06;101424.22;5024424;28;20060;-67
2021/11/21 10:23:21;;;;;;;5.10;1.80;;;;;;;9.14;89.10;101429.47;5022649;28;20067;-67
2021/11/21 10:25:55;;;;;;;4.05;1.67;;;;;;;9.19;88.80;101424.94;5030738;28;20048;-67
2021/11/21 10:28:29;;;;;;;15.38;1.95;;;;;;;9.20;90.29;101421.38;5024955;28;20543;-68
2021/11/21 10:31:14;;;;;;;;;;;;;;;9.30;90.71;101420.31;5033297;28;20211;-65
2021/11/21 10:33:46;;;;;;;6.45;1.50;;;;;;;9.27;88.77;101424.81;5022941;28;19925;-68
2021/11/21 10:36:18;;;;;;;6.80;1.55;;;;;;;9.28;86.33;101421.22;5031345;28;20122;-69
2021/11/21 10:38:50;;;;;;;4.63;1.13;;;;;;;9.15;84.15;101418.78;5027205;28;20517;-70
2021/11/21 10:41:23;;;;;;;6.20;1.50;;;;;;;9.25;86.03;101426.63;5034053;28;20052;-70
2021/11/21 10:44:00;;;;;;;8.13;1.65;;;;;;;9.21;86.55;101425.81;5026952;28;20052;-69
2021/11/21 10:46:34;;;;;;;7.60;1.60;;;;;;;9.36;87.96;101424.63;5027666;28;20053;-70
2021/11/21 10:49:24;;;;;;;6.47;1.27;;;;;;;9.22;83.55;101426.69;5023995;28;20072;-73
2021/11/21 10:52:08;;;;;;;4.10;1.20;;;;;;;9.38;84.68;101430.84;5027720;28;20057;-71
2021/11/21 10:54:40;;;;;;;4.13;1.10;;;;;;;9.35;81.78;101430.91;5023078;28;20254;-74
2021/11/21 10:57:12;;;;;;;6.70;1.60;;;;;;;9.48;82.60;101428.88;5027483;28;20592;-74
2021/11/21 10:59:49;;;;;;;3.53;1.50;;;;;;;9.71;82.90;101420.47;5025885;28;20188;-72
2021/11/21 11:02:23;;;;;;;4.57;1.30;;;;;;;9.67;81.70;101414.31;5029540;28;20083;-72
2021/11/21 11:05:00;;;;;;;2.40;1.13;;;;;;;9.58;80.59;101425.13;5027808;28;20049;-72
2021/11/21 11:07:29;;;;;;;5.45;1.23;;;;;;;9.69;82.94;101419.63;5024169;28;20401;-74
2021/11/21 11:09:58;;;;;;;6.30;1.52;;;;;;;9.92;81.66;101419.16;5024236;28;20049;-73
2021/11/21 11:12:27;;;;;;;4.28;1.80;;;;;;;10.12;82.41;101415.22;5024799;28;20139;-75
2021/11/21 11:14:56;;;;;;;4.32;1.25;;;;;;;10.38;82.69;101415.53;5025921;28;20037;-75
2021/11/21 11:17:27;;;;;;;6.78;1.33;;;;;;;10.17;82.71;101424.00;5029214;28;20049;-74
2021/11/21 11:19:59;;;;;;;6.20;1.63;;;;;;;9.93;80.60;101426.25;5025795;28;20167;-74
2021/11/21 11:22:28;;;;;;;10.13;2.33;;;;;;;9.64;80.44;101419.69;5026387;28;20056;-74
2021/11/21 11:24:59;;;;;;;6.93;1.73;;;;;;;9.32;82.73;101423.81;5025122;28;20045;-74
2021/11/21 11:27:42;;;;;;;7.68;2.08;;;;;;;9.30;85.27;101425.63;5025693;28;21964;-74
2021/11/21 11:30:10;;;;;;;12.00;2.15;;;;;;;9.15;85.60;101429.44;5026016;28;20817;-75
2021/11/21 11:32:40;;;;;;;7.18;1.92;;;;;;;9.22;86.57;101426.69;5026148;28;20079;-74